createdAt,value
2023-02-27T00:00:00.338Z,5.75
2023-02-27T00:02:27.261Z,5.73
2023-02-27T00:04:54.719Z,5.73
2023-02-27T00:07:26.073Z,5.74
2023-02-27T00:09:53.337Z,5.77
2023-02-27T00:12:20.226Z,5.81
2023-02-27T00:14:46.922Z,5.84
2023-02-27T00:17:13.620Z,5.85
2023-02-27T00:19:40.221Z,5.85
2023-02-27T00:22:06.868Z,5.84
2023-02-27T00:24:33.500Z,5.84
2023-02-27T00:27:00.168Z,5.87
2023-02-27T00:29:28.033Z,5.88
2023-02-27T00:31:54.729Z,5.94
2023-02-27T00:34:21.491Z,5.99
2023-02-27T00:36:49.562Z,6.02
2023-02-27T00:39:16.295Z,6.05
2023-02-27T00:41:42.891Z,6.09
2023-02-27T00:44:09.539Z,6.12
2023-02-27T00:46:36.278Z,6.15
2023-02-27T00:49:02.973Z,6.17
2023-02-27T00:51:29.691Z,6.19
2023-02-27T00:53:56.638Z,6.21
2023-02-27T00:56:23.425Z,6.23
2023-02-27T00:58:50.142Z,6.25
2023-02-27T01:01:16.949Z,6.24
2023-02-27T01:03:43.648Z,6.25
2023-02-27T01:06:10.330Z,6.24
2023-02-27T01:08:36.964Z,6.23
2023-02-27T01:11:03.776Z,6.20
2023-02-27T01:13:30.545Z,6.14
2023-02-27T01:15:57.362Z,6.09
2023-02-27T01:18:24.079Z,6.01
2023-02-27T01:20:55.099Z,5.95
2023-02-27T01:23:23.073Z,5.89
2023-02-27T01:25:50.271Z,5.83
2023-02-27T01:28:17.172Z,5.77
2023-02-27T01:30:44.192Z,5.73
2023-02-27T01:33:10.909Z,5.70
2023-02-27T01:35:37.837Z,5.68
2023-02-27T01:38:04.578Z,5.66
2023-02-27T01:40:37.399Z,5.66
2023-02-27T01:43:05.365Z,5.67
2023-02-27T01:45:40.087Z,5.69
2023-02-27T01:48:15.126Z,5.73
2023-02-27T01:51:11.462Z,5.76
2023-02-27T01:53:40.215Z,5.80
2023-02-27T01:56:16.637Z,5.81
2023-02-27T01:58:44.411Z,5.85
2023-02-27T02:01:11.241Z,5.89
2023-02-27T02:03:45.358Z,5.92
2023-02-27T02:06:12.615Z,5.93
2023-02-27T02:08:44.166Z,5.94
2023-02-27T02:11:12.544Z,5.97
2023-02-27T02:13:41.457Z,5.99
2023-02-27T02:16:46.233Z,6.01
2023-02-27T02:19:34.835Z,6.01
2023-02-27T02:22:04.109Z,6.02
2023-02-27T02:25:00.867Z,6.04
2023-02-27T02:27:39.395Z,6.04
2023-02-27T02:30:35.452Z,6.04
2023-02-27T02:33:31.112Z,6.04
2023-02-27T02:36:19.680Z,6.03
2023-02-27T02:38:52.508Z,6.01
2023-02-27T02:41:49.979Z,6.02
2023-02-27T02:44:19.697Z,6.01
2023-02-27T02:47:00.210Z,6.00
2023-02-27T02:49:53.376Z,6.00
2023-02-27T02:52:19.952Z,5.97
2023-02-27T02:55:05.065Z,5.92
2023-02-27T02:57:41.064Z,5.88
2023-02-27T03:02:48.209Z,5.77
2023-02-27T03:05:22.649Z,5.72
2023-02-27T03:07:57.445Z,5.67
2023-02-27T03:10:30.566Z,5.61
2023-02-27T03:13:08.921Z,5.57
2023-02-27T03:15:43.901Z,5.54
2023-02-27T03:18:20.576Z,5.51
2023-02-27T03:20:58.191Z,5.51
2023-02-27T03:23:38.327Z,5.54
2023-02-27T03:26:06.927Z,5.56
2023-02-27T03:28:38.627Z,5.61
2023-02-27T03:31:23.396Z,5.63
2023-02-27T03:33:55.888Z,5.65
2023-02-27T03:36:58.245Z,5.68
2023-02-27T03:39:44.335Z,5.71
2023-02-27T03:42:25.461Z,5.74
2023-02-27T03:45:07.675Z,5.77
2023-02-27T03:47:35.411Z,5.80
2023-02-27T03:50:02.185Z,5.80
2023-02-27T03:52:29.927Z,5.82
2023-02-27T03:55:08.618Z,5.83
2023-02-27T03:57:36.533Z,5.84
2023-02-27T04:00:07.201Z,5.86
2023-02-27T04:02:33.988Z,5.87
2023-02-27T04:05:00.693Z,5.88
2023-02-27T04:07:37.544Z,5.88
2023-02-27T04:10:41.427Z,5.88
2023-02-27T04:13:10.827Z,5.88
2023-02-27T04:15:46.587Z,5.88
2023-02-27T04:18:30.839Z,5.89
2023-02-27T04:21:06.091Z,5.89
2023-02-27T04:23:55.165Z,5.90
2023-02-27T04:26:27.872Z,5.88
2023-02-27T04:29:06.603Z,5.88
2023-02-27T04:31:57.568Z,5.88
2023-02-27T04:34:32.730Z,5.88
2023-02-27T04:37:26.169Z,5.88
2023-02-27T04:39:53.477Z,5.89
2023-02-27T04:42:25.731Z,5.86
2023-02-27T04:44:56.105Z,5.84
2023-02-27T04:47:25.194Z,5.82
2023-02-27T04:49:58.534Z,5.82
2023-02-27T04:52:31.889Z,5.81
2023-02-27T04:55:14.795Z,5.80
2023-02-27T04:57:50.526Z,5.81
2023-02-27T05:00:21.384Z,5.80
2023-02-27T05:02:54.462Z,5.79
2023-02-27T05:05:26.797Z,5.79
2023-02-27T05:07:59.424Z,5.79
2023-02-27T05:10:35.021Z,5.78
2023-02-27T05:13:16.284Z,5.77
2023-02-27T05:15:59.927Z,5.78
2023-02-27T05:18:27.306Z,5.78
2023-02-27T05:21:06.581Z,5.77
2023-02-27T05:23:39.665Z,5.77
2023-02-27T05:26:27.232Z,5.78
2023-02-27T05:29:07.526Z,5.80
2023-02-27T05:31:57.111Z,5.80
2023-02-27T05:34:29.351Z,5.79
2023-02-27T05:37:00.037Z,5.75
2023-02-27T05:39:30.247Z,5.75
2023-02-27T05:42:05.089Z,5.75
2023-02-27T05:44:36.005Z,5.73
2023-02-27T05:47:08.042Z,5.73
2023-02-27T05:49:43.409Z,5.74
2023-02-27T05:52:14.228Z,5.74
2023-02-27T05:54:51.794Z,5.75
2023-02-27T05:57:44.147Z,5.76
2023-02-27T06:00:14.337Z,5.77
2023-02-27T06:02:43.779Z,5.78
2023-02-27T06:05:11.382Z,5.79
2023-02-27T06:07:39.329Z,5.79
2023-02-27T06:10:06.882Z,5.80
2023-02-27T06:12:33.574Z,5.81
2023-02-27T06:15:00.273Z,5.80
2023-02-27T06:17:26.904Z,5.78
2023-02-27T06:19:53.588Z,5.80
2023-02-27T06:22:20.251Z,5.79
2023-02-27T06:24:46.878Z,5.81
2023-02-27T06:27:13.565Z,5.82
2023-02-27T06:29:40.455Z,5.83
2023-02-27T06:32:07.180Z,5.83
2023-02-27T06:34:33.856Z,5.83
2023-02-27T06:37:02.621Z,5.85
2023-02-27T06:39:30.583Z,5.86
2023-02-27T06:41:57.217Z,5.85
2023-02-27T06:44:24.046Z,5.85
2023-02-27T06:46:50.670Z,5.84
2023-02-27T06:49:17.330Z,5.85
2023-02-27T06:51:45.088Z,5.84
2023-02-27T06:54:11.972Z,5.83
2023-02-27T06:56:38.682Z,5.84
2023-02-27T06:59:05.536Z,5.84
2023-02-27T07:01:32.500Z,5.86
2023-02-27T07:04:01.114Z,5.86
2023-02-27T07:07:32.057Z,5.87
2023-02-27T07:09:14.763Z,5.88
2023-02-27T07:11:41.397Z,5.88
2023-02-27T07:14:08.093Z,5.88
2023-02-27T07:16:34.720Z,5.87
2023-02-27T07:19:01.329Z,5.88
2023-02-27T07:21:27.977Z,5.89
2023-02-27T07:23:54.584Z,5.90
2023-02-27T07:26:21.289Z,5.91
2023-02-27T07:28:47.924Z,5.93
2023-02-27T07:31:14.832Z,5.92
2023-02-27T07:33:41.931Z,5.91
2023-02-27T07:36:08.623Z,5.91
2023-02-27T07:38:35.350Z,5.91
2023-02-27T07:41:02.078Z,5.90
2023-02-27T07:43:28.705Z,5.91
2023-02-27T07:45:55.347Z,5.90
2023-02-27T07:48:21.989Z,5.89
2023-02-27T07:50:48.610Z,5.89
2023-02-27T07:53:15.237Z,5.89
2023-02-27T07:55:41.929Z,5.88
2023-02-27T07:58:08.582Z,5.87
2023-02-27T08:00:35.364Z,5.86
2023-02-27T08:03:02.116Z,5.86
2023-02-27T08:05:28.873Z,5.86
2023-02-27T08:07:55.767Z,5.88
2023-02-27T08:10:22.455Z,5.87
2023-02-27T08:12:49.063Z,5.85
2023-02-27T08:15:15.888Z,5.86
2023-02-27T08:17:42.598Z,5.86
2023-02-27T08:20:11.869Z,5.87
2023-02-27T08:22:38.535Z,5.88
2023-02-27T08:25:07.856Z,5.89
2023-02-27T08:27:35.144Z,5.88
2023-02-27T08:30:01.853Z,5.88
2023-02-27T08:32:28.727Z,5.91
2023-02-27T08:34:55.510Z,5.95
2023-02-27T08:37:23.086Z,5.97
2023-02-27T08:39:49.696Z,5.96
2023-02-27T08:42:16.414Z,5.98
2023-02-27T08:44:43.079Z,6.03
2023-02-27T08:47:09.886Z,6.01
2023-02-27T08:49:36.773Z,6.02
2023-02-27T08:52:05.599Z,6.01
2023-02-27T08:54:32.278Z,6.01
2023-02-27T08:56:59.805Z,6.00
2023-02-27T08:59:26.533Z,6.02
2023-02-27T09:01:53.263Z,6.02
2023-02-27T09:04:21.070Z,6.02
2023-02-27T09:06:48.204Z,6.03
2023-02-27T09:09:14.920Z,6.08
2023-02-27T09:11:42.067Z,6.10
2023-02-27T09:14:08.842Z,6.12
2023-02-27T09:16:35.674Z,6.11
2023-02-27T09:19:02.391Z,6.13
2023-02-27T09:21:29.866Z,6.16
2023-02-27T09:24:02.575Z,6.19
2023-02-27T09:26:45.379Z,6.21
2023-02-27T09:29:13.382Z,6.23
2023-02-27T09:31:40.145Z,6.24
2023-02-27T09:34:06.802Z,6.26
2023-02-27T09:36:33.476Z,6.25
2023-02-27T09:39:00.145Z,6.26
2023-02-27T09:41:54.970Z,6.28
2023-02-27T09:44:44.804Z,6.31
2023-02-27T09:47:28.431Z,6.37
2023-02-27T09:49:55.110Z,6.41
2023-02-27T09:52:21.920Z,6.44
2023-02-27T09:54:49.416Z,6.46
2023-02-27T09:57:24.311Z,6.47
2023-02-27T09:59:56.811Z,6.53
2023-02-27T10:02:54.261Z,6.56
2023-02-27T10:05:56.153Z,6.61
2023-02-27T10:08:45.762Z,6.63
2023-02-27T10:11:17.273Z,6.66
2023-02-27T10:13:46.938Z,6.66
2023-02-27T10:16:17.406Z,6.72
2023-02-27T10:18:55.838Z,6.88
2023-02-27T10:21:35.967Z,6.93
2023-02-27T10:24:14.882Z,7.09
2023-02-27T10:26:44.391Z,7.27
2023-02-27T10:29:19.084Z,7.41
2023-02-27T10:31:50.385Z,7.33
2023-02-27T10:34:17.300Z,7.31
2023-02-27T10:36:47.064Z,7.37
2023-02-27T10:39:18.190Z,7.35
2023-02-27T10:41:46.786Z,7.29
2023-02-27T10:44:20.572Z,7.25
2023-02-27T10:46:51.315Z,7.25
2023-02-27T10:49:22.533Z,7.33
2023-02-27T10:52:16.705Z,7.46
2023-02-27T10:54:44.058Z,7.60
2023-02-27T10:57:35.898Z,7.66
2023-02-27T11:00:06.497Z,7.64
2023-02-27T11:02:39.736Z,7.67
2023-02-27T11:05:29.069Z,7.67
2023-02-27T11:08:20.846Z,7.62
2023-02-27T11:11:27.484Z,7.47
2023-02-27T11:14:14.842Z,7.30
2023-02-27T11:17:20.435Z,7.21
2023-02-27T11:19:47.239Z,7.14
2023-02-27T11:22:20.308Z,7.16
2023-02-27T11:24:48.259Z,7.26
2023-02-27T11:27:28.857Z,7.33
2023-02-27T11:30:03.387Z,7.35
2023-02-27T11:32:48.948Z,7.39
2023-02-27T11:35:32.840Z,7.48
2023-02-27T11:38:03.312Z,7.60
2023-02-27T11:40:37.330Z,7.78
2023-02-27T11:43:15.171Z,7.96
2023-02-27T11:46:29.143Z,8.07
2023-02-27T11:48:31.891Z,8.06
2023-02-27T11:51:11.603Z,8.07
2023-02-27T11:53:57.298Z,8.11
2023-02-27T11:56:53.821Z,8.12
2023-02-27T11:59:26.436Z,8.06
2023-02-27T12:02:01.721Z,8.08
2023-02-27T12:04:41.565Z,8.02
2023-02-27T12:07:19.115Z,8.01
2023-02-27T12:10:00.790Z,8.07
2023-02-27T12:12:45.722Z,8.08
2023-02-27T12:15:24.096Z,8.15
2023-02-27T12:17:59.667Z,8.17
2023-02-27T12:20:50.694Z,8.12
2023-02-27T12:23:29.272Z,8.07
2023-02-27T12:26:17.901Z,8.12
2023-02-27T12:29:15.061Z,8.18
2023-02-27T12:31:47.847Z,8.16
2023-02-27T12:34:26.190Z,8.10
2023-02-27T12:36:54.197Z,8.09
2023-02-27T12:39:25.542Z,8.14
2023-02-27T12:42:01.460Z,8.17
2023-02-27T12:45:09.793Z,8.18
2023-02-27T12:47:42.581Z,8.15
2023-02-27T12:50:19.800Z,8.02
2023-02-27T12:53:14.181Z,7.97
2023-02-27T12:55:47.896Z,7.92
2023-02-27T12:58:25.733Z,7.92
2023-02-27T13:01:15.621Z,7.93
2023-02-27T13:04:15.077Z,7.88
2023-02-27T13:06:57.802Z,7.90
2023-02-27T13:09:34.341Z,7.94
2023-02-27T13:12:00.979Z,8.09
2023-02-27T13:14:36.851Z,8.19
2023-02-27T13:17:10.732Z,8.36
2023-02-27T13:20:15.307Z,8.53
2023-02-27T13:22:54.695Z,8.62
2023-02-27T13:25:22.800Z,8.56
2023-02-27T13:27:57.562Z,8.48
2023-02-27T13:30:26.373Z,8.27
2023-02-27T13:33:16.513Z,8.20
2023-02-27T13:36:24.278Z,8.18
2023-02-27T13:38:53.448Z,8.14
2023-02-27T13:41:29.082Z,8.23
2023-02-27T13:44:22.866Z,8.37
2023-02-27T13:46:49.712Z,8.50
2023-02-27T13:49:28.822Z,8.63
2023-02-27T13:51:59.906Z,8.72
2023-02-27T13:54:36.391Z,8.65
2023-02-27T13:57:09.095Z,8.60
2023-02-27T13:59:39.692Z,8.56
2023-02-27T14:02:31.149Z,8.54
2023-02-27T14:05:03.094Z,8.48
2023-02-27T14:07:34.483Z,8.39
2023-02-27T14:10:11.667Z,8.36
2023-02-27T14:12:45.754Z,8.26
2023-02-27T14:15:22.352Z,8.15
2023-02-27T14:17:52.532Z,8.10
2023-02-27T14:20:32.048Z,8.18
2023-02-27T14:23:16.884Z,8.26
2023-02-27T14:25:49.739Z,8.22
2023-02-27T14:28:43.969Z,8.14
2023-02-27T14:31:32.728Z,8.11
2023-02-27T14:34:05.854Z,8.11
2023-02-27T14:36:39.650Z,8.13
2023-02-27T14:39:06.443Z,8.08
2023-02-27T14:41:49.659Z,8.02
2023-02-27T14:44:28.058Z,7.97
2023-02-27T14:46:57.616Z,7.88
2023-02-27T14:49:35.912Z,7.85
2023-02-27T14:52:29.730Z,7.85
2023-02-27T14:55:27.795Z,7.82
2023-02-27T14:58:08.219Z,7.75
2023-02-27T15:00:39.287Z,7.73
2023-02-27T15:03:27.948Z,7.78
2023-02-27T15:05:59.532Z,7.82
2023-02-27T15:08:40.538Z,7.97
2023-02-27T15:11:08.796Z,7.97
2023-02-27T15:13:39.171Z,7.91
2023-02-27T15:21:01.676Z,7.87
2023-02-27T15:24:02.609Z,7.82
2023-02-27T15:27:02.461Z,7.71
2023-02-27T15:29:58.101Z,7.77
2023-02-27T15:32:45.124Z,7.89
2023-02-27T15:35:37.518Z,7.88
2023-02-27T15:38:28.374Z,7.64
2023-02-27T15:41:21.022Z,7.42
2023-02-27T15:44:07.883Z,7.18
2023-02-27T15:46:56.155Z,7.11
2023-02-27T15:49:43.275Z,7.12
2023-02-27T15:52:40.552Z,7.15
2023-02-27T15:55:37.505Z,7.11
2023-02-27T15:58:30.332Z,7.13
2023-02-27T16:01:22.756Z,7.25
2023-02-27T16:04:24.309Z,7.40
2023-02-27T16:07:22.385Z,7.45
2023-02-27T16:10:20.463Z,7.45
2023-02-27T16:13:25.812Z,7.49
2023-02-27T16:16:35.970Z,7.47
2023-02-27T16:19:32.526Z,7.42
2023-02-27T16:22:21.192Z,7.39
2023-02-27T16:25:18.641Z,7.32
2023-02-27T16:28:05.594Z,7.28
2023-02-27T16:30:54.439Z,7.25
2023-02-27T16:33:42.794Z,7.25
2023-02-27T16:36:31.646Z,7.20
2023-02-27T16:39:18.687Z,7.18
2023-02-27T16:42:05.670Z,7.21
2023-02-27T16:44:52.792Z,7.23
2023-02-27T16:47:39.814Z,7.18
2023-02-27T16:50:29.023Z,7.17
2023-02-27T16:53:17.975Z,7.13
2023-02-27T16:56:05.239Z,7.09
2023-02-27T16:58:53.093Z,7.02
2023-02-27T17:01:40.093Z,7.05
2023-02-27T17:04:28.140Z,7.06
2023-02-27T17:07:17.761Z,7.06
2023-02-27T17:10:05.065Z,6.97
2023-02-27T17:12:52.608Z,6.96
2023-02-27T17:15:39.628Z,6.99
2023-02-27T17:18:26.927Z,6.95
2023-02-27T17:21:13.922Z,6.92
2023-02-27T17:24:01.198Z,6.91
2023-02-27T17:26:48.200Z,6.91
2023-02-27T17:29:38.261Z,6.92
2023-02-27T17:32:25.379Z,6.90
2023-02-27T17:35:12.411Z,6.86
2023-02-27T17:37:59.598Z,6.87
2023-02-27T17:40:46.530Z,6.87
2023-02-27T17:43:33.552Z,6.85
2023-02-27T17:46:28.671Z,6.83
2023-02-27T17:49:15.762Z,6.80
2023-02-27T17:52:02.952Z,6.80
2023-02-27T17:54:50.179Z,6.75
2023-02-27T17:57:38.828Z,6.73
2023-02-27T18:00:25.855Z,6.75
2023-02-27T18:03:12.821Z,6.74
2023-02-27T18:05:59.802Z,6.73
2023-02-27T18:08:47.367Z,6.74
2023-02-27T18:11:34.335Z,6.75
2023-02-27T18:14:21.308Z,6.72
2023-02-27T18:17:12.075Z,6.71
2023-02-27T18:19:59.091Z,6.73
2023-02-27T18:22:45.973Z,6.74
2023-02-27T18:25:33.014Z,6.74
2023-02-27T18:28:19.893Z,6.75
2023-02-27T18:31:06.914Z,6.74
2023-02-27T18:33:54.534Z,6.78
2023-02-27T18:36:41.749Z,6.75
2023-02-27T18:39:28.679Z,6.77
2023-02-27T18:42:15.571Z,6.74
2023-02-27T18:45:02.517Z,6.74
2023-02-27T18:47:49.524Z,6.74
2023-02-27T18:50:36.585Z,6.73
2023-02-27T18:53:23.489Z,6.70
2023-02-27T18:56:11.140Z,6.68
2023-02-27T18:59:02.121Z,6.71
2023-02-27T19:01:49.134Z,6.72
2023-02-27T19:04:36.246Z,6.72
2023-02-27T19:07:23.811Z,6.72
2023-02-27T19:10:11.375Z,6.72
2023-02-27T19:12:58.262Z,6.71
2023-02-27T19:15:45.210Z,6.68
2023-02-27T19:18:32.209Z,6.67
2023-02-27T19:21:19.143Z,6.68
2023-02-27T19:23:45.940Z,6.68
2023-02-27T19:26:12.613Z,6.69
2023-02-27T19:28:39.325Z,6.70
2023-02-27T19:31:08.071Z,6.68
2023-02-27T19:33:34.894Z,6.68
2023-02-27T19:36:09.208Z,6.70
2023-02-27T19:38:36.822Z,6.70
2023-02-27T19:41:06.724Z,6.70
2023-02-27T19:43:35.385Z,6.69
2023-02-27T19:46:13.664Z,6.70
2023-02-27T19:48:41.941Z,6.70
2023-02-27T19:51:11.042Z,6.68
2023-02-27T19:53:39.760Z,6.69
2023-02-27T19:56:12.588Z,6.71
2023-02-27T19:58:39.790Z,6.73
2023-02-27T20:01:07.078Z,6.72
2023-02-27T20:03:35.335Z,6.74
2023-02-27T20:06:06.369Z,6.75
2023-02-27T20:08:34.109Z,6.74
2023-02-27T20:11:03.882Z,6.75
2023-02-27T20:13:31.138Z,6.74
2023-02-27T20:16:03.214Z,6.74
2023-02-27T20:18:32.312Z,6.73
2023-02-27T20:21:06.097Z,6.74
2023-02-27T20:23:34.864Z,6.73
2023-02-27T20:26:01.716Z,6.72
2023-02-27T20:28:28.532Z,6.70
2023-02-27T20:30:55.311Z,6.68
2023-02-27T20:33:21.991Z,6.67
2023-02-27T20:35:48.694Z,6.66
2023-02-27T20:38:19.910Z,6.68
2023-02-27T20:40:46.608Z,6.67
2023-02-27T20:43:13.243Z,6.66
2023-02-27T20:45:40.354Z,6.66
2023-02-27T20:48:07.218Z,6.66
2023-02-27T20:50:34.938Z,6.66
2023-02-27T20:53:04.716Z,6.65
2023-02-27T20:55:31.394Z,6.65
2023-02-27T20:57:58.117Z,6.63
2023-02-27T21:00:26.800Z,6.63
2023-02-27T21:03:00.871Z,6.63
2023-02-27T21:05:27.713Z,6.62
2023-02-27T21:07:54.384Z,6.64
2023-02-27T21:10:21.102Z,6.64
2023-02-27T21:12:48.165Z,6.62
2023-02-27T21:15:15.023Z,6.65
2023-02-27T21:17:41.756Z,6.64
2023-02-27T21:20:09.130Z,6.63
2023-02-27T21:22:36.030Z,6.63
2023-02-27T21:25:02.666Z,6.62
2023-02-27T21:27:29.373Z,6.61
2023-02-27T21:29:56.485Z,6.60
2023-02-27T21:32:23.157Z,6.62
2023-02-27T21:34:50.504Z,6.61
2023-02-27T21:37:17.148Z,6.61
2023-02-27T21:39:47.124Z,6.59
2023-02-27T21:42:13.765Z,6.60
2023-02-27T21:44:40.429Z,6.61
2023-02-27T21:47:10.155Z,6.61
2023-02-27T21:49:37.339Z,6.61
2023-02-27T21:52:04.191Z,6.61
2023-02-27T21:54:30.973Z,6.61
2023-02-27T21:57:01.809Z,6.62
2023-02-27T21:59:28.805Z,6.61
2023-02-27T22:01:57.345Z,6.63
2023-02-27T22:04:24.993Z,6.63
2023-02-27T22:06:53.546Z,6.63
2023-02-27T22:09:20.844Z,6.66
2023-02-27T22:11:48.537Z,6.68
2023-02-27T22:14:15.612Z,6.68
2023-02-27T22:16:42.375Z,6.68
2023-02-27T22:19:19.790Z,6.68
2023-02-27T22:21:46.845Z,6.68
2023-02-27T22:24:13.795Z,6.68
2023-02-27T22:26:41.662Z,6.69
2023-02-27T22:29:08.901Z,6.70
2023-02-27T22:31:37.928Z,6.70
2023-02-27T22:34:12.317Z,6.71
2023-02-27T22:36:41.199Z,6.70
2023-02-27T22:39:10.162Z,6.72
2023-02-27T22:41:38.539Z,6.72
2023-02-27T22:44:06.334Z,6.73
2023-02-27T22:46:35.933Z,6.74
2023-02-27T22:49:05.817Z,6.74
2023-02-27T22:51:32.928Z,6.73
2023-02-27T22:54:01.751Z,6.73
2023-02-27T22:56:29.770Z,6.72
2023-02-27T22:58:56.768Z,6.70
2023-02-27T23:01:25.684Z,6.70
2023-02-27T23:03:53.974Z,6.69
2023-02-27T23:06:25.192Z,6.71
2023-02-27T23:08:52.244Z,6.72
2023-02-27T23:11:20.306Z,6.70
2023-02-27T23:13:47.488Z,6.70
2023-02-27T23:16:14.643Z,6.70
2023-02-27T23:18:45.546Z,6.72
2023-02-27T23:21:12.759Z,6.74
2023-02-27T23:23:39.812Z,6.73
2023-02-27T23:26:06.924Z,6.75
2023-02-27T23:28:35.548Z,6.73
2023-02-27T23:31:02.542Z,6.75
2023-02-27T23:33:29.991Z,6.75
2023-02-27T23:35:59.504Z,6.79
2023-02-27T23:38:26.938Z,6.80
2023-02-27T23:40:54.242Z,6.79
2023-02-27T23:43:21.810Z,6.80
2023-02-27T23:45:48.550Z,6.79
2023-02-27T23:48:15.260Z,6.76
2023-02-27T23:50:44.505Z,6.78
2023-02-27T23:53:14.977Z,6.78
2023-02-27T23:55:41.991Z,6.78
2023-02-27T23:58:11.160Z,6.78
